createdAt,value
2023-03-03T00:01:56.490Z,23.73
2023-03-03T00:04:23.557Z,27.75
2023-03-03T00:06:50.606Z,23.48
2023-03-03T00:09:17.640Z,21.80
2023-03-03T00:11:45.985Z,23.35
2023-03-03T00:14:33.102Z,29.33
2023-03-03T00:17:18.096Z,34.35
2023-03-03T00:19:47.443Z,25.52
2023-03-03T00:22:28.874Z,26.17
2023-03-03T00:24:56.162Z,29.33
2023-03-03T00:27:36.250Z,26.65
2023-03-03T00:30:03.990Z,30.17
2023-03-03T00:32:50.886Z,28.05
2023-03-03T00:35:35.768Z,26.48
2023-03-03T00:38:16.977Z,30.55
2023-03-03T00:40:44.586Z,30.25
2023-03-03T00:43:28.078Z,29.13
2023-03-03T00:45:57.147Z,27.38
2023-03-03T00:48:34.307Z,27.17
2023-03-03T00:51:11.083Z,34.58
2023-03-03T00:53:38.185Z,25.58
2023-03-03T00:56:05.386Z,31.15
2023-03-03T00:58:32.405Z,29.98
2023-03-03T01:00:59.455Z,32.80
2023-03-03T01:03:37.053Z,25.73
2023-03-03T01:06:05.068Z,29.00
2023-03-03T01:08:33.266Z,31.00
2023-03-03T01:11:13.860Z,33.50
2023-03-03T01:13:43.105Z,34.45
2023-03-03T01:18:38.086Z,29.35
2023-03-03T01:21:05.699Z,30.63
2023-03-03T01:23:32.758Z,31.25
2023-03-03T01:25:59.764Z,29.92
2023-03-03T01:28:27.077Z,25.60
2023-03-03T01:30:54.220Z,28.65
2023-03-03T01:33:21.401Z,32.58
2023-03-03T01:35:49.098Z,32.30
2023-03-03T01:38:16.531Z,30.70
2023-03-03T01:40:43.516Z,29.73
2023-03-03T01:43:15.628Z,31.55
2023-03-03T01:46:06.230Z,32.13
2023-03-03T01:48:42.848Z,31.90
2023-03-03T01:51:22.042Z,36.20
2023-03-03T01:53:54.037Z,28.65
2023-03-03T01:56:21.113Z,30.73
2023-03-03T01:59:18.725Z,30.83
2023-03-03T02:01:48.189Z,29.27
2023-03-03T02:04:16.031Z,29.80
2023-03-03T02:06:49.782Z,33.97
2023-03-03T02:09:22.758Z,32.75
2023-03-03T02:11:52.569Z,34.10
2023-03-03T02:14:19.651Z,35.95
2023-03-03T02:16:46.676Z,30.80
2023-03-03T02:19:34.170Z,36.55
2023-03-03T02:22:02.459Z,36.85
2023-03-03T02:24:34.676Z,39.20
2023-03-03T02:27:01.743Z,38.40
2023-03-03T02:29:29.878Z,35.47
2023-03-03T02:31:58.003Z,34.83
2023-03-03T02:34:25.260Z,32.72
2023-03-03T02:36:52.415Z,36.47
2023-03-03T02:39:26.759Z,30.55
2023-03-03T02:42:09.870Z,29.70
2023-03-03T02:44:42.384Z,29.45
2023-03-03T02:47:09.513Z,34.60
2023-03-03T02:49:37.989Z,31.75
2023-03-03T02:52:09.958Z,33.05
2023-03-03T02:54:39.194Z,33.60
2023-03-03T02:57:07.321Z,39.78
2023-03-03T02:59:34.273Z,35.65
2023-03-03T03:02:09.034Z,35.28
2023-03-03T03:04:36.094Z,38.65
2023-03-03T03:07:04.413Z,40.05
2023-03-03T03:09:33.168Z,43.42
2023-03-03T03:12:02.616Z,39.53
2023-03-03T03:14:32.721Z,36.50
2023-03-03T03:16:59.779Z,40.45
2023-03-03T03:19:28.388Z,38.60
2023-03-03T03:21:56.326Z,35.85
2023-03-03T03:24:23.448Z,41.40
2023-03-03T03:26:56.986Z,43.13
2023-03-03T03:29:25.708Z,37.97
2023-03-03T03:31:53.079Z,45.17
2023-03-03T03:34:20.093Z,40.55
2023-03-03T03:36:49.084Z,35.00
2023-03-03T03:39:17.399Z,39.28
2023-03-03T03:41:47.306Z,41.72
2023-03-03T03:44:14.334Z,38.10
2023-03-03T03:46:41.387Z,36.80
2023-03-03T03:49:08.627Z,40.60
2023-03-03T03:51:38.266Z,36.88
2023-03-03T03:54:05.552Z,33.65
2023-03-03T03:56:34.146Z,32.67
2023-03-03T03:59:02.339Z,35.72
2023-03-03T04:01:29.315Z,35.08
2023-03-03T04:03:57.703Z,33.33
2023-03-03T04:06:25.300Z,39.42
2023-03-03T04:08:53.164Z,38.67
2023-03-03T04:13:49.550Z,38.47
2023-03-03T04:16:16.887Z,44.47
2023-03-03T04:18:46.479Z,51.55
2023-03-03T04:21:16.589Z,42.13
2023-03-03T04:26:12.280Z,37.42
2023-03-03T04:28:39.778Z,41.15
2023-03-03T04:31:07.728Z,41.78
2023-03-03T04:33:34.888Z,45.10
2023-03-03T04:36:03.725Z,50.45
2023-03-03T04:38:31.324Z,43.50
2023-03-03T04:40:58.431Z,37.35
2023-03-03T04:43:28.241Z,41.10
2023-03-03T04:45:56.334Z,43.63
2023-03-03T04:48:23.797Z,38.00
2023-03-03T04:50:50.922Z,38.08
2023-03-03T04:53:17.934Z,37.63
2023-03-03T04:55:45.146Z,33.42
2023-03-03T04:58:12.310Z,37.58
2023-03-03T05:00:40.076Z,35.45
2023-03-03T05:03:11.003Z,35.25
2023-03-03T05:05:41.478Z,36.03
2023-03-03T05:08:08.503Z,34.40
2023-03-03T05:10:35.569Z,33.78
2023-03-03T05:13:02.597Z,37.67
2023-03-03T05:15:29.572Z,34.08
2023-03-03T05:17:57.038Z,38.28
2023-03-03T05:20:24.996Z,35.65
2023-03-03T05:22:52.617Z,36.45
2023-03-03T05:25:19.679Z,38.53
2023-03-03T05:27:46.717Z,36.58
2023-03-03T05:30:13.870Z,40.95
2023-03-03T05:32:40.742Z,42.10
2023-03-03T05:35:08.213Z,40.97
2023-03-03T05:37:35.160Z,52.13
2023-03-03T05:40:02.108Z,33.58
2023-03-03T05:42:28.994Z,39.03
2023-03-03T05:44:56.197Z,40.33
2023-03-03T05:47:23.108Z,43.47
2023-03-03T05:49:50.075Z,46.58
2023-03-03T05:52:17.038Z,42.75
2023-03-03T05:54:44.123Z,42.47
2023-03-03T05:57:11.197Z,46.45
2023-03-03T05:59:38.308Z,39.75
2023-03-03T06:02:05.586Z,35.85
2023-03-03T06:04:32.609Z,38.42
2023-03-03T06:06:59.618Z,33.70
2023-03-03T06:09:26.533Z,36.63
2023-03-03T06:11:53.680Z,39.20
2023-03-03T06:14:21.216Z,38.15
2023-03-03T06:16:48.776Z,35.33
2023-03-03T06:19:16.007Z,32.20
2023-03-03T06:21:43.219Z,32.63
2023-03-03T06:24:10.147Z,33.92
2023-03-03T06:30:56.889Z,32.63
2023-03-03T06:33:23.926Z,36.60
2023-03-03T06:35:52.459Z,35.65
2023-03-03T06:38:20.177Z,34.83
2023-03-03T06:40:47.770Z,38.22
2023-03-03T06:43:14.906Z,33.78
2023-03-03T06:45:41.982Z,34.03
2023-03-03T06:48:09.094Z,31.80
2023-03-03T06:50:36.144Z,27.50
2023-03-03T06:53:14.993Z,36.25
2023-03-03T06:55:44.816Z,43.10
2023-03-03T06:58:20.707Z,40.35
2023-03-03T07:01:01.146Z,39.05
2023-03-03T07:03:35.806Z,35.72
2023-03-03T07:06:15.877Z,36.15
2023-03-03T07:08:42.969Z,31.65
2023-03-03T07:11:16.275Z,33.40
2023-03-03T07:13:48.147Z,38.90
2023-03-03T07:16:16.900Z,36.20
2023-03-03T07:18:51.150Z,42.25
2023-03-03T07:21:30.780Z,36.28
2023-03-03T07:23:58.573Z,39.13
2023-03-03T07:26:32.936Z,37.70
2023-03-03T07:29:42.093Z,35.17
2023-03-03T07:32:23.201Z,35.20
2023-03-03T07:34:52.319Z,35.72
2023-03-03T07:37:38.594Z,37.97
2023-03-03T07:40:25.536Z,36.38
2023-03-03T07:42:52.558Z,38.95
2023-03-03T07:45:37.621Z,35.97
2023-03-03T07:48:13.696Z,38.47
2023-03-03T07:50:41.463Z,36.72
2023-03-03T07:53:24.442Z,35.05
2023-03-03T07:55:51.440Z,36.97
2023-03-03T07:58:27.852Z,40.88
2023-03-03T08:01:13.468Z,37.80
2023-03-03T08:03:40.508Z,42.35
2023-03-03T08:06:35.221Z,37.17
2023-03-03T08:09:11.355Z,47.88
2023-03-03T08:12:14.497Z,41.17
2023-03-03T08:14:41.466Z,39.53
2023-03-03T08:17:20.824Z,41.88
2023-03-03T08:19:49.400Z,40.78
2023-03-03T08:22:38.335Z,42.47
2023-03-03T08:25:05.593Z,39.40
2023-03-03T08:27:32.556Z,37.05
2023-03-03T08:29:59.505Z,39.35
2023-03-03T08:32:26.587Z,39.30
2023-03-03T08:34:53.641Z,37.40
2023-03-03T08:37:20.651Z,40.17
2023-03-03T08:39:47.640Z,39.58
2023-03-03T08:42:16.228Z,37.25
2023-03-03T08:44:43.344Z,36.60
2023-03-03T08:47:10.296Z,35.13
2023-03-03T08:49:37.780Z,41.97
2023-03-03T08:52:04.857Z,43.17
2023-03-03T08:54:31.969Z,38.53
2023-03-03T08:56:58.931Z,43.67
2023-03-03T08:59:26.037Z,42.60
2023-03-03T09:01:53.091Z,41.20
2023-03-03T09:04:20.213Z,42.05
2023-03-03T09:06:47.529Z,38.03
2023-03-03T09:09:14.879Z,45.63
2023-03-03T09:11:43.618Z,41.45
2023-03-03T09:14:15.394Z,39.08
2023-03-03T09:16:50.730Z,39.45
2023-03-03T09:19:23.690Z,41.58
2023-03-03T09:21:55.905Z,40.47
2023-03-03T09:24:31.343Z,43.25
2023-03-03T09:26:59.227Z,41.08
2023-03-03T09:29:31.654Z,38.38
2023-03-03T09:32:02.386Z,42.80
2023-03-03T09:34:42.725Z,40.92
2023-03-03T09:37:22.846Z,39.00
2023-03-03T09:39:52.287Z,39.00
2023-03-03T09:42:19.222Z,43.50
2023-03-03T09:44:58.104Z,40.33
2023-03-03T09:47:52.292Z,41.80
2023-03-03T09:50:46.055Z,38.97
2023-03-03T09:53:31.330Z,37.05
2023-03-03T09:56:19.767Z,37.35
2023-03-03T09:59:07.001Z,37.38
2023-03-03T10:01:57.589Z,40.13
2023-03-03T10:04:44.700Z,42.33
2023-03-03T10:07:23.542Z,39.70
2023-03-03T10:10:12.006Z,36.78
2023-03-03T10:12:48.853Z,33.60
2023-03-03T10:15:40.610Z,36.67
2023-03-03T10:18:42.443Z,40.67
2023-03-03T10:21:23.148Z,37.92
2023-03-03T10:23:59.246Z,43.13
2023-03-03T10:26:45.725Z,34.53
2023-03-03T10:32:22.248Z,37.00
2023-03-03T10:35:02.956Z,37.00
2023-03-03T10:38:14.981Z,36.97
2023-03-03T10:41:12.722Z,35.83
2023-03-03T10:44:08.174Z,37.53
2023-03-03T10:47:10.604Z,39.30
2023-03-03T10:49:41.872Z,33.83
2023-03-03T10:52:28.300Z,38.13
2023-03-03T10:55:25.410Z,35.22
2023-03-03T10:58:08.429Z,35.80
2023-03-03T11:00:42.094Z,35.60
2023-03-03T11:03:08.986Z,36.88
2023-03-03T11:05:44.037Z,32.33
2023-03-03T11:08:19.613Z,40.03
2023-03-03T11:11:14.197Z,34.88
2023-03-03T11:13:47.053Z,40.85
2023-03-03T11:16:48.960Z,38.22
2023-03-03T11:19:25.632Z,39.80
2023-03-03T11:22:11.414Z,36.78
2023-03-03T11:24:38.344Z,35.45
2023-03-03T11:27:33.673Z,39.10
2023-03-03T11:30:06.448Z,39.03
2023-03-03T11:33:15.037Z,41.80
2023-03-03T11:35:49.884Z,38.90
2023-03-03T11:38:34.108Z,42.10
2023-03-03T11:41:18.777Z,37.25
2023-03-03T11:44:25.966Z,34.60
2023-03-03T11:47:11.198Z,39.75
2023-03-03T11:49:54.054Z,38.78
2023-03-03T11:52:45.175Z,36.78
2023-03-03T11:55:15.197Z,40.85
2023-03-03T11:57:47.347Z,35.47
2023-03-03T12:00:30.256Z,41.53
2023-03-03T12:03:10.782Z,38.58
2023-03-03T12:06:10.876Z,36.97
2023-03-03T12:08:54.114Z,38.20
2023-03-03T12:12:03.899Z,42.40
2023-03-03T12:14:49.314Z,37.95
2023-03-03T12:17:50.279Z,42.35
2023-03-03T12:20:36.400Z,40.60
2023-03-03T12:23:38.645Z,40.33
2023-03-03T12:26:27.220Z,39.13
2023-03-03T12:29:02.547Z,41.70
2023-03-03T12:32:08.259Z,38.97
2023-03-03T12:34:39.632Z,38.33
2023-03-03T12:37:24.893Z,40.58
2023-03-03T12:44:37.575Z,40.10
2023-03-03T12:47:23.163Z,49.25
2023-03-03T12:50:07.852Z,43.72
2023-03-03T12:52:59.239Z,41.47
2023-03-03T12:55:38.343Z,43.97
2023-03-03T12:58:24.213Z,43.25
2023-03-03T13:00:57.134Z,45.53
2023-03-03T13:03:55.485Z,44.42
2023-03-03T13:06:50.365Z,46.60
2023-03-03T13:09:40.438Z,45.28
2023-03-03T13:12:40.422Z,42.28
2023-03-03T13:15:38.433Z,41.50
2023-03-03T13:18:29.582Z,43.33
2023-03-03T13:21:06.774Z,39.88
2023-03-03T13:23:39.809Z,43.42
2023-03-03T13:26:18.615Z,42.70
2023-03-03T13:29:19.874Z,43.75
2023-03-03T13:31:52.439Z,44.63
2023-03-03T13:34:40.441Z,40.33
2023-03-03T13:37:35.442Z,44.63
2023-03-03T13:40:12.765Z,39.83
2023-03-03T13:42:46.743Z,46.08
2023-03-03T13:45:38.362Z,44.92
2023-03-03T13:48:34.676Z,42.15
2023-03-03T13:55:48.747Z,41.10
2023-03-03T13:58:18.530Z,45.30
2023-03-03T14:03:23.347Z,37.90
2023-03-03T14:05:51.393Z,46.33
2023-03-03T14:08:24.211Z,44.33
2023-03-03T14:11:09.702Z,46.20
2023-03-03T14:14:00.192Z,39.58
2023-03-03T14:16:39.486Z,40.53
2023-03-03T14:19:12.583Z,42.63
2023-03-03T14:21:52.762Z,41.53
2023-03-03T14:24:26.611Z,38.45
2023-03-03T14:26:58.017Z,41.70
2023-03-03T14:29:28.102Z,42.03
2023-03-03T14:32:03.241Z,41.50
2023-03-03T14:34:41.417Z,41.60
2023-03-03T14:37:30.480Z,41.33
2023-03-03T14:40:09.931Z,46.58
2023-03-03T14:42:50.522Z,41.25
2023-03-03T14:45:31.006Z,38.42
2023-03-03T14:47:58.946Z,38.47
2023-03-03T14:50:44.412Z,41.28
2023-03-03T14:53:19.403Z,38.78
2023-03-03T14:55:49.628Z,38.22
2023-03-03T14:58:32.368Z,39.45
2023-03-03T15:01:32.420Z,35.95
2023-03-03T15:04:04.586Z,42.22
2023-03-03T15:06:49.352Z,39.00
2023-03-03T15:09:30.932Z,42.13
2023-03-03T15:11:59.725Z,40.00
2023-03-03T15:14:43.202Z,39.85
2023-03-03T15:17:21.160Z,41.80
2023-03-03T15:20:18.638Z,42.95
2023-03-03T15:22:54.898Z,40.92
2023-03-03T15:25:42.760Z,38.25
2023-03-03T15:28:32.224Z,45.67
2023-03-03T15:31:15.302Z,44.13
2023-03-03T15:34:29.680Z,40.25
2023-03-03T15:37:20.333Z,38.42
2023-03-03T15:40:05.384Z,45.33
2023-03-03T15:43:14.207Z,38.60
2023-03-03T15:46:12.274Z,37.77
2023-03-03T15:48:51.492Z,41.35
2023-03-03T15:51:27.581Z,42.30
2023-03-03T15:54:23.141Z,38.55
2023-03-03T15:56:58.426Z,42.47
2023-03-03T15:59:34.634Z,40.13
2023-03-03T16:02:21.650Z,41.38
2023-03-03T16:04:57.941Z,37.95
2023-03-03T16:07:30.728Z,38.97
2023-03-03T16:10:18.758Z,43.13
2023-03-03T16:12:53.853Z,36.38
2023-03-03T16:15:32.572Z,41.63
2023-03-03T16:18:04.245Z,40.25
2023-03-03T16:20:44.310Z,42.55
2023-03-03T16:23:40.598Z,39.25
2023-03-03T16:26:29.071Z,39.63
2023-03-03T16:29:07.949Z,38.50
2023-03-03T16:31:54.375Z,36.20
2023-03-03T16:34:24.240Z,39.30
2023-03-03T16:40:01.952Z,39.97
2023-03-03T16:42:31.404Z,41.95
2023-03-03T16:45:16.508Z,40.65
2023-03-03T16:48:01.421Z,45.97
2023-03-03T16:50:46.994Z,43.90
2023-03-03T16:53:41.778Z,41.00
2023-03-03T16:56:24.910Z,39.58
2023-03-03T16:59:11.506Z,40.65
2023-03-03T17:06:16.458Z,37.20
2023-03-03T17:09:31.757Z,46.13
2023-03-03T17:12:05.174Z,41.20
2023-03-03T17:14:38.192Z,41.85
2023-03-03T17:17:15.495Z,39.55
2023-03-03T17:20:07.113Z,44.38
2023-03-03T17:22:40.175Z,43.17
2023-03-03T17:25:13.983Z,40.35
2023-03-03T17:27:56.199Z,39.58
2023-03-03T17:30:26.907Z,42.67
2023-03-03T17:33:14.203Z,39.00
2023-03-03T17:36:10.406Z,39.22
2023-03-03T17:39:42.643Z,35.65
2023-03-03T17:42:24.502Z,42.95
2023-03-03T17:45:06.537Z,39.17
2023-03-03T17:47:47.796Z,42.13
2023-03-03T17:51:08.599Z,39.60
2023-03-03T17:53:43.392Z,40.08
2023-03-03T17:56:22.452Z,39.08
2023-03-03T17:59:23.132Z,33.28
2023-03-03T18:01:53.094Z,41.47
2023-03-03T18:04:25.324Z,39.95
2023-03-03T18:07:53.968Z,38.92
2023-03-03T18:10:47.666Z,36.63
2023-03-03T18:13:36.665Z,34.90
2023-03-03T18:16:12.063Z,36.15
2023-03-03T18:18:55.314Z,39.88
2023-03-03T18:21:22.261Z,36.45
2023-03-03T18:23:49.713Z,36.40
2023-03-03T18:26:40.332Z,34.70
2023-03-03T18:29:17.317Z,37.45
2023-03-03T18:32:09.663Z,35.83
2023-03-03T18:34:39.802Z,38.45
2023-03-03T18:37:31.656Z,37.42
2023-03-03T18:40:04.655Z,36.42
2023-03-03T18:42:42.835Z,36.08
2023-03-03T18:45:29.994Z,37.97
2023-03-03T18:48:09.844Z,31.25
2023-03-03T18:50:39.515Z,35.88
2023-03-03T18:55:47.948Z,34.15
2023-03-03T18:58:14.889Z,38.10
2023-03-03T19:00:51.498Z,32.55
2023-03-03T19:03:46.842Z,36.83
2023-03-03T19:06:30.145Z,32.30
2023-03-03T19:08:58.724Z,33.67
2023-03-03T19:11:42.497Z,31.25
2023-03-03T19:14:16.038Z,32.25
2023-03-03T19:16:44.419Z,33.85
2023-03-03T19:19:34.724Z,29.92
2023-03-03T19:22:26.403Z,34.80
2023-03-03T19:25:09.287Z,34.60
2023-03-03T19:27:49.904Z,30.95
2023-03-03T19:30:36.860Z,36.22
2023-03-03T19:33:12.801Z,33.05
2023-03-03T19:36:21.136Z,28.85
2023-03-03T19:39:11.920Z,31.38
2023-03-03T19:42:06.996Z,32.63
2023-03-03T19:44:51.969Z,31.65
2023-03-03T19:47:48.348Z,30.80
2023-03-03T19:51:06.719Z,29.30
2023-03-03T19:53:52.748Z,33.63
2023-03-03T19:56:40.716Z,29.75
2023-03-03T19:59:14.062Z,29.27
2023-03-03T20:01:59.809Z,32.10
2023-03-03T20:04:54.107Z,31.70
2023-03-03T20:07:24.195Z,29.25
2023-03-03T20:09:56.952Z,28.83
2023-03-03T20:12:40.525Z,27.63
2023-03-03T20:15:24.815Z,26.52
2023-03-03T20:18:02.008Z,25.08
2023-03-03T20:20:49.065Z,27.15
2023-03-03T20:23:47.084Z,28.27
2023-03-03T20:26:31.539Z,24.30
2023-03-03T20:29:20.407Z,25.25
2023-03-03T20:32:11.679Z,21.25
2023-03-03T20:35:06.532Z,26.30
2023-03-03T20:37:39.336Z,24.58
2023-03-03T20:40:35.349Z,25.40
2023-03-03T20:43:06.632Z,26.92
2023-03-03T20:46:09.898Z,26.52
2023-03-03T20:48:48.834Z,27.20
2023-03-03T20:55:18.832Z,29.83
2023-03-03T20:58:13.837Z,25.65
2023-03-03T21:00:52.715Z,29.60
2023-03-03T21:03:34.459Z,30.45
2023-03-03T21:06:09.571Z,31.42
2023-03-03T21:08:44.127Z,37.33
2023-03-03T21:11:12.760Z,35.38
2023-03-03T21:13:41.411Z,35.95
2023-03-03T21:16:31.360Z,33.47
2023-03-03T21:19:10.057Z,33.63
2023-03-03T21:21:43.263Z,33.73
2023-03-03T21:24:19.624Z,35.08
2023-03-03T21:27:09.642Z,41.45
2023-03-03T21:29:36.597Z,39.00
2023-03-03T21:32:09.209Z,30.38
2023-03-03T21:38:54.834Z,35.37
2023-03-03T21:41:22.417Z,31.98
2023-03-03T21:43:52.082Z,31.13
2023-03-03T21:48:52.034Z,32.70
2023-03-03T21:51:20.595Z,31.38
2023-03-03T21:53:47.837Z,32.92
2023-03-03T21:56:15.259Z,26.50
2023-03-03T21:58:42.430Z,32.50
2023-03-03T22:01:10.461Z,30.42
2023-03-03T22:03:37.806Z,35.58
2023-03-03T22:06:05.055Z,30.27
2023-03-03T22:08:32.044Z,31.30
2023-03-03T22:10:59.103Z,30.55
2023-03-03T22:13:27.366Z,28.90
2023-03-03T22:15:55.375Z,31.08
2023-03-03T22:18:22.480Z,29.45
2023-03-03T22:25:13.967Z,27.05
2023-03-03T22:27:40.937Z,27.25
2023-03-03T22:30:08.834Z,27.20
2023-03-03T22:32:35.871Z,28.35
2023-03-03T22:35:03.147Z,25.50
2023-03-03T22:37:30.094Z,25.35
2023-03-03T22:39:57.086Z,26.98
2023-03-03T22:42:25.128Z,24.88
2023-03-03T22:44:52.076Z,24.80
2023-03-03T22:47:19.049Z,31.17
2023-03-03T22:49:45.986Z,29.23
2023-03-03T22:52:13.298Z,25.77
2023-03-03T22:54:41.148Z,24.85
2023-03-03T23:01:05.443Z,25.23
2023-03-03T23:03:32.925Z,24.70
2023-03-03T23:06:00.034Z,25.98
2023-03-03T23:08:27.690Z,23.98
2023-03-03T23:10:54.734Z,23.35
2023-03-03T23:13:21.799Z,22.23
2023-03-03T23:15:48.897Z,27.85
2023-03-03T23:18:15.890Z,24.20
2023-03-03T23:20:46.035Z,23.98
2023-03-03T23:23:13.463Z,23.17
2023-03-03T23:25:40.509Z,24.30
2023-03-03T23:28:08.274Z,21.60
2023-03-03T23:30:35.289Z,20.67
2023-03-03T23:33:02.336Z,21.10
2023-03-03T23:35:29.362Z,18.90
2023-03-03T23:37:56.320Z,23.95
2023-03-03T23:40:24.122Z,20.63
2023-03-03T23:42:51.125Z,18.38
2023-03-03T23:45:18.191Z,21.75
2023-03-03T23:47:45.300Z,21.75
2023-03-03T23:50:13.409Z,22.70
2023-03-03T23:53:15.661Z,22.83
2023-03-03T23:55:43.656Z,21.13
2023-03-03T23:58:12.192Z,19.17
